Esmeralda, Argentina
Current Conditions -  °F | °C
As of 3:00 AM on Friday 31 Oct 2014 (Local Time) from SAAR Reporting Station
Clear Clear  
Wind Chill: 68°   Ceiling: Unl
Heat Index: 68°   Visibility: 6mi
Dew Point: 59°   Wind: 7mph
Humidity: 73%   Direction: 50°NE
Pressure: 29.8"   Gusts: NA
Location:  31.77°S, 61.81°W
Report Text: SAAR 310600Z 05006KT CAVOK 20/15 Q1009
Loading
Personal Weather Stations






























Interactive Weather Map
Tropical Storm Tracking
New forecast layout! Learn more

10-Day Weather Forecast

Advertisements
Track Severe Weather on mobile